Time;durP1;ratioP1;P1;durP2;ratioP2;P2;SDS_P1;SDS_P2;PMS_P1;PMS_P2;Temp;Humidity;BMP_temperature;BMP_pressure;BME280_temperature;BME280_humidity;BME280_pressure;Samples;Min_cycle;Max_cycle;Signal;HPM_P1;HPM_P2
2023/11/27 00:04:50;;;;;;;5.10;1.90;;;;;;;4.91;64.16;99496.13;10435554;28;20064;-66
2023/11/27 00:09:52;;;;;;;2.83;1.73;;;;;;;4.96;64.33;99497.63;10436058;28;20067;-66
2023/11/27 00:14:54;;;;;;;3.58;1.83;;;;;;;4.90;64.30;99495.31;10435683;28;20360;-66
2023/11/27 00:19:56;;;;;;;2.45;1.60;;;;;;;4.95;64.24;99484.72;10437827;28;20964;-66
2023/11/27 00:24:58;;;;;;;5.57;1.75;;;;;;;4.95;64.26;99477.78;10436564;28;20071;-66
2023/11/27 00:30:00;;;;;;;2.25;1.55;;;;;;;4.90;64.11;99481.50;10435669;28;20079;-66
2023/11/27 00:35:03;;;;;;;4.07;1.40;;;;;;;4.83;64.24;99474.88;10436587;28;20313;-65
2023/11/27 00:40:06;;;;;;;3.13;1.55;;;;;;;4.72;64.31;99462.38;10436286;28;20049;-65
2023/11/27 00:45:09;;;;;;;3.15;1.60;;;;;;;4.78;64.28;99458.72;10436472;28;20049;-67
2023/11/27 00:50:12;;;;;;;5.55;1.73;;;;;;;4.66;64.24;99457.47;10436364;28;20562;-65
2023/11/27 00:55:14;;;;;;;5.15;1.60;;;;;;;4.67;64.27;99449.66;10436292;28;20060;-66
2023/11/27 01:00:17;;;;;;;5.03;2.25;;;;;;;4.61;64.23;99439.56;10435387;28;20510;-67
2023/11/27 01:05:19;;;;;;;4.47;1.33;;;;;;;4.52;64.15;99429.59;10451220;28;20098;-65
2023/11/27 01:10:21;;;;;;;4.07;1.50;;;;;;;4.57;63.66;99434.59;10435850;28;20049;-66
2023/11/27 01:15:24;;;;;;;2.65;1.42;;;;;;;4.55;63.10;99426.88;10417493;28;20130;-66
2023/11/27 01:20:26;;;;;;;2.28;1.50;;;;;;;4.39;62.20;99422.44;10435943;28;20131;-66
2023/11/27 01:25:29;;;;;;;1.77;1.40;;;;;;;4.38;62.89;99411.22;10433139;28;20041;-66
2023/11/27 01:30:31;;;;;;;2.15;1.45;;;;;;;4.41;62.39;99398.13;10412973;28;20300;-67
2023/11/27 01:35:34;;;;;;;3.97;2.33;;;;;;;4.26;62.08;99393.63;10433573;28;20131;-66
2023/11/27 01:40:36;;;;;;;4.30;1.48;;;;;;;4.37;62.34;99388.81;10434399;28;20084;-66
2023/11/27 01:45:38;;;;;;;2.35;1.60;;;;;;;4.41;62.15;99380.00;10448390;28;20067;-66
2023/11/27 01:50:41;;;;;;;2.05;1.40;;;;;;;4.44;61.92;99374.72;10433719;28;20207;-65
2023/11/27 01:55:43;;;;;;;2.95;1.42;;;;;;;4.54;61.99;99367.38;10433785;28;20128;-65
2023/11/27 02:00:45;;;;;;;2.58;1.33;;;;;;;4.54;61.85;99369.97;10413459;28;20115;-66
2023/11/27 02:05:47;;;;;;;4.22;1.40;;;;;;;4.47;61.53;99360.81;10413181;28;20678;-65
2023/11/27 02:10:49;;;;;;;2.28;1.35;;;;;;;4.50;61.78;99342.53;10433602;28;20056;-66
2023/11/27 02:15:54;;;;;;;4.93;2.00;;;;;;;4.46;61.64;99336.66;10433120;28;20080;-65
2023/11/27 02:21:03;;;;;;;1.80;1.20;;;;;;;4.44;61.58;99333.28;10433362;28;20052;-66
2023/11/27 02:26:06;;;;;;;5.40;1.50;;;;;;;4.38;61.85;99318.03;10412945;28;20071;-66
2023/11/27 02:31:08;;;;;;;2.58;1.60;;;;;;;4.27;62.05;99314.25;10433549;28;20267;-66
2023/11/27 02:36:10;;;;;;;1.98;1.40;;;;;;;4.23;61.70;99302.34;10415497;28;20044;-66
2023/11/27 02:41:12;;;;;;;2.10;1.40;;;;;;;4.29;61.73;99294.31;10433001;28;20049;-66
2023/11/27 02:46:15;;;;;;;2.22;1.52;;;;;;;4.24;61.67;99301.41;10435392;28;20511;-65
2023/11/27 02:51:18;;;;;;;5.05;1.80;;;;;;;4.25;61.89;99285.81;10440367;28;20045;-66
2023/11/27 02:56:20;;;;;;;2.50;1.38;;;;;;;4.29;61.94;99283.97;10423189;28;20148;-66
2023/11/27 03:01:29;;;;;;;4.10;1.70;;;;;;;4.25;61.94;99274.66;10415768;28;20514;-66
2023/11/27 03:06:31;;;;;;;2.28;1.30;;;;;;;4.21;62.33;99253.22;10441016;28;20102;-66
2023/11/27 03:11:33;;;;;;;6.07;1.58;;;;;;;4.33;62.34;99251.84;10422172;28;20131;-66
2023/11/27 03:16:34;;;;;;;2.85;1.42;;;;;;;4.41;62.33;99244.56;10440197;28;20052;-65
2023/11/27 03:21:37;;;;;;;1.90;1.20;;;;;;;4.35;62.34;99230.13;10403357;28;20072;-66
2023/11/27 03:26:39;;;;;;;1.35;1.10;;;;;;;4.38;61.92;99226.56;10421687;28;20041;-65
2023/11/27 03:31:42;;;;;;;2.28;1.20;;;;;;;4.47;62.30;99226.16;10437619;28;20055;-66
2023/11/27 03:36:44;;;;;;;2.40;1.40;;;;;;;4.53;62.15;99212.94;10439451;28;20369;-67
2023/11/27 03:41:50;;;;;;;2.28;1.50;;;;;;;4.49;62.37;99212.25;10438450;28;20048;-65
2023/11/27 03:46:53;;;;;;;1.58;1.02;;;;;;;4.49;62.44;99206.22;10421233;28;20118;-66
2023/11/27 03:51:55;;;;;;;2.38;1.20;;;;;;;4.47;61.97;99189.94;10438978;28;20090;-66
2023/11/27 03:56:57;;;;;;;1.70;1.25;;;;;;;4.48;62.19;99189.84;10437823;28;20496;-66
2023/11/27 04:01:59;;;;;;;1.92;1.20;;;;;;;4.55;62.10;99188.66;10437336;28;20131;-66
2023/11/27 04:07:01;;;;;;;2.38;1.50;;;;;;;4.53;62.13;99171.50;10438435;28;20049;-65
2023/11/27 04:12:05;;;;;;;1.30;1.20;;;;;;;4.53;62.16;99172.34;10437773;28;20187;-66
2023/11/27 04:17:07;;;;;;;1.80;1.27;;;;;;;4.61;61.88;99166.81;10438400;28;20316;-66
2023/11/27 04:22:10;;;;;;;2.70;1.15;;;;;;;4.62;61.69;99166.72;10436885;28;20037;-66
2023/11/27 04:27:12;;;;;;;6.22;1.70;;;;;;;4.59;61.59;99148.75;10436970;28;20409;-66
2023/11/27 04:32:14;;;;;;;2.78;1.30;;;;;;;4.50;61.05;99146.59;10436382;28;20052;-66
2023/11/27 04:37:17;;;;;;;1.30;1.20;;;;;;;4.56;61.33;99142.88;10437301;28;20493;-65
2023/11/27 04:42:19;;;;;;;2.47;1.20;;;;;;;4.53;61.38;99125.75;10437162;28;20056;-65
2023/11/27 04:47:21;;;;;;;3.00;1.30;;;;;;;4.61;61.32;99118.44;10436321;28;20390;-64
2023/11/27 04:52:23;;;;;;;1.38;0.90;;;;;;;4.53;61.50;99115.41;10436474;28;20049;-64
2023/11/27 04:57:25;;;;;;;3.25;1.17;;;;;;;4.55;61.38;99104.97;10435673;28;20052;-64
2023/11/27 05:02:27;;;;;;;3.70;1.40;;;;;;;4.52;61.32;99095.56;10436562;28;20048;-64
2023/11/27 05:07:29;;;;;;;1.45;1.15;;;;;;;4.37;61.25;99085.94;10435240;28;20073;-65
2023/11/27 05:12:31;;;;;;;2.72;1.40;;;;;;;4.43;61.63;99082.25;10435649;28;20048;-64
2023/11/27 05:17:34;;;;;;;5.28;1.50;;;;;;;4.41;61.55;99074.53;10434797;28;20386;-65
2023/11/27 05:22:36;;;;;;;5.07;1.95;;;;;;;4.22;60.99;99070.31;10415934;28;20127;-65
2023/11/27 05:27:39;;;;;;;2.20;1.52;;;;;;;4.22;61.72;99066.00;10401054;28;20467;-65
2023/11/27 05:32:41;;;;;;;3.42;1.52;;;;;;;4.23;61.32;99053.91;10416452;28;20128;-64
2023/11/27 05:37:43;;;;;;;3.92;1.30;;;;;;;4.24;60.14;99050.38;10434120;28;20132;-65
2023/11/27 05:42:45;;;;;;;2.88;1.33;;;;;;;4.32;61.40;99054.28;10435113;28;20206;-65
2023/11/27 05:47:49;;;;;;;2.97;1.60;;;;;;;4.31;61.37;99041.44;10433100;28;20049;-65
2023/11/27 05:52:51;;;;;;;6.68;1.80;;;;;;;4.29;61.36;99032.91;10417353;28;20049;-64
2023/11/27 05:57:54;;;;;;;1.77;1.20;;;;;;;4.24;61.10;99024.50;10432769;28;20045;-64
2023/11/27 06:02:57;;;;;;;5.85;1.55;;;;;;;4.17;60.94;99013.59;10414919;28;20051;-65
2023/11/27 06:08:00;;;;;;;3.65;1.77;;;;;;;4.23;61.53;99015.91;10432628;28;20436;-65
2023/11/27 06:13:02;;;;;;;3.53;1.27;;;;;;;4.26;61.46;98996.78;10432890;28;20095;-65
2023/11/27 06:18:04;;;;;;;4.53;1.80;;;;;;;4.31;61.37;98997.44;10432403;28;20331;-64
2023/11/27 06:23:06;;;;;;;2.22;1.20;;;;;;;4.24;61.29;98983.09;10433250;28;20609;-65
2023/11/27 06:28:08;;;;;;;3.33;1.25;;;;;;;4.32;60.98;98989.56;10432272;28;20393;-65
2023/11/27 06:33:10;;;;;;;1.95;1.20;;;;;;;4.23;60.83;98971.09;10432702;28;20817;-65
2023/11/27 06:38:12;;;;;;;3.25;1.35;;;;;;;4.11;60.87;98967.31;10430752;28;20697;-65
2023/11/27 06:43:15;;;;;;;2.53;1.63;;;;;;;4.12;61.18;98957.81;10432364;28;20041;-65
2023/11/27 06:48:17;;;;;;;5.35;1.50;;;;;;;4.21;61.32;98958.19;10431290;28;20056;-65
2023/11/27 06:53:19;;;;;;;3.13;1.42;;;;;;;4.24;61.13;98962.41;10433375;28;20077;-64
2023/11/27 06:58:21;;;;;;;2.83;1.50;;;;;;;4.18;61.17;98952.34;10431114;28;20665;-65
2023/11/27 07:03:23;;;;;;;3.70;1.33;;;;;;;4.22;61.33;98943.50;10431566;28;20053;-65
2023/11/27 07:08:25;;;;;;;3.30;1.70;;;;;;;4.17;61.65;98930.81;10432128;28;20132;-65
2023/11/27 07:13:27;;;;;;;2.88;1.65;;;;;;;3.94;62.32;98928.53;10432523;28;20049;-65
2023/11/27 07:18:29;;;;;;;2.25;1.15;;;;;;;4.00;62.43;98919.63;10413648;28;20076;-66
2023/11/27 07:23:39;;;;;;;1.85;1.23;;;;;;;3.88;62.83;98921.06;10429976;28;20417;-65
2023/11/27 07:28:41;;;;;;;1.92;1.20;;;;;;;3.91;63.16;98918.31;10432382;28;20048;-66
2023/11/27 07:33:46;;;;;;;5.40;1.50;;;;;;;3.98;63.08;98909.34;10436437;28;20069;-65
2023/11/27 07:38:49;;;;;;;2.47;1.05;;;;;;;3.94;63.32;98910.41;10438248;28;20563;-65
2023/11/27 07:43:51;;;;;;;4.15;1.13;;;;;;;4.06;63.39;98902.06;10439614;28;20057;-65
2023/11/27 07:48:53;;;;;;;2.08;1.23;;;;;;;3.99;63.19;98894.66;10437899;28;20072;-64
2023/11/27 07:53:55;;;;;;;3.15;1.20;;;;;;;3.81;63.47;98886.88;10438491;28;20045;-65
2023/11/27 07:58:58;;;;;;;2.50;1.52;;;;;;;3.78;63.72;98879.25;10420217;28;20136;-64
2023/11/27 08:04:00;;;;;;;5.45;1.45;;;;;;;3.83;63.45;98873.84;10437161;28;20140;-65
2023/11/27 08:09:04;;;;;;;2.13;1.58;;;;;;;3.65;63.70;98856.66;10438129;28;20404;-64
2023/11/27 08:14:06;;;;;;;1.88;1.30;;;;;;;3.43;64.01;98849.13;10437798;28;20043;-65
2023/11/27 08:19:12;;;;;;;1.90;1.30;;;;;;;3.46;63.98;98851.53;10436429;28;20432;-64
2023/11/27 08:24:15;;;;;;;2.15;1.20;;;;;;;3.37;63.53;98840.81;10437231;28;20045;-65
2023/11/27 08:29:17;;;;;;;1.10;1.00;;;;;;;3.34;63.77;98828.03;10437388;28;20045;-64
2023/11/27 08:34:20;;;;;;;2.70;1.30;;;;;;;3.15;63.58;98829.81;10437419;28;20053;-65
2023/11/27 08:39:21;;;;;;;2.28;1.63;;;;;;;3.13;63.71;98829.06;10436215;28;20053;-65
2023/11/27 08:44:23;;;;;;;2.70;1.23;;;;;;;3.01;63.69;98818.38;10419020;28;20052;-65
2023/11/27 08:49:25;;;;;;;1.77;1.17;;;;;;;2.88;63.54;98806.97;10416825;28;20511;-65
2023/11/27 08:54:32;;;;;;;2.38;1.10;;;;;;;2.71;63.86;98794.00;10401755;28;20055;-65
2023/11/27 08:59:34;;;;;;;1.35;1.05;;;;;;;2.53;63.93;98781.09;10431887;28;20048;-65
2023/11/27 09:04:36;;;;;;;2.50;1.40;;;;;;;2.42;64.23;98768.66;10435962;28;20041;-65
2023/11/27 09:09:38;;;;;;;2.53;1.60;;;;;;;2.48;64.29;98752.09;10434123;28;20060;-65
2023/11/27 09:14:42;;;;;;;1.55;1.15;;;;;;;2.62;64.37;98745.34;10435109;28;20733;-65
2023/11/27 09:19:45;;;;;;;1.50;1.02;;;;;;;2.63;64.40;98744.47;10433373;28;20045;-65
2023/11/27 09:24:48;;;;;;;3.60;1.50;;;;;;;2.71;64.45;98733.78;10434132;28;20067;-66
2023/11/27 09:29:50;;;;;;;2.63;1.30;;;;;;;2.71;64.11;98723.44;10403824;28;20056;-65
2023/11/27 09:34:52;;;;;;;1.20;1.10;;;;;;;2.72;64.18;98705.31;10424287;28;20052;-65
2023/11/27 09:39:54;;;;;;;1.67;1.20;;;;;;;2.76;64.14;98690.53;10431677;28;20143;-65
2023/11/27 09:44:56;;;;;;;1.20;1.00;;;;;;;2.64;64.33;98684.19;10430517;28;20720;-66
2023/11/27 09:50:02;;;;;;;1.80;1.35;;;;;;;2.46;64.40;98677.31;10431155;28;20072;-65
2023/11/27 09:55:10;;;;;;;1.45;1.15;;;;;;;2.39;64.24;98657.88;10429918;28;20403;-65
2023/11/27 10:00:20;;;;;;;;;;;;;;;2.10;64.79;98658.38;10431640;28;20049;-65
2023/11/27 10:05:23;;;;;;;2.67;1.55;;;;;;;2.11;64.93;98649.75;10430749;28;20050;-65
2023/11/27 10:10:28;;;;;;;3.85;1.88;;;;;;;2.12;64.92;98651.41;10430388;28;20167;-65
2023/11/27 10:15:31;;;;;;;2.75;1.58;;;;;;;2.12;64.89;98629.03;10429476;28;20140;-65
2023/11/27 10:20:33;;;;;;;2.50;1.50;;;;;;;2.24;64.83;98609.56;10430076;28;20872;-65
2023/11/27 10:25:35;;;;;;;3.00;1.90;;;;;;;2.21;64.95;98596.84;10429980;28;20564;-67
2023/11/27 10:30:37;;;;;;;1.85;1.30;;;;;;;2.34;64.79;98590.16;10433810;28;20041;-67
2023/11/27 10:35:41;;;;;;;7.97;1.52;;;;;;;2.42;64.42;98569.19;10431459;28;20053;-67
2023/11/27 10:40:45;;;;;;;2.67;1.58;;;;;;;2.42;64.48;98556.28;10433760;28;20163;-67
2023/11/27 10:45:49;;;;;;;3.03;1.70;;;;;;;2.41;64.84;98549.44;10431882;28;20382;-67
2023/11/27 10:50:53;;;;;;;2.40;1.60;;;;;;;2.54;64.57;98525.53;10432763;28;20041;-68
2023/11/27 10:56:00;;;;;;;3.88;1.95;;;;;;;2.71;64.54;98509.19;10421519;28;20037;-67
2023/11/27 11:01:07;;;;;;;4.97;2.50;;;;;;;2.67;64.42;98502.53;10411809;28;20139;-68
2023/11/27 11:06:15;;;;;;;7.97;4.15;;;;;;;2.41;64.54;98483.19;10429275;28;20560;-68
2023/11/27 11:11:23;;;;;;;6.07;3.03;;;;;;;2.39;64.91;98468.69;10428534;28;20040;-68
2023/11/27 11:16:39;;;;;;;6.97;3.15;;;;;;;2.49;64.84;98452.69;10438576;28;20513;-68
2023/11/27 11:22:17;;;;;;;4.68;2.08;;;;;;;2.47;64.48;98426.13;10451763;28;20056;-68
2023/11/27 11:27:39;;;;;;;3.83;1.73;;;;;;;2.32;65.13;98416.56;10418765;28;20052;-67
2023/11/27 11:32:41;;;;;;;3.07;1.40;;;;;;;2.46;64.73;98403.00;10430702;28;20100;-68
2023/11/27 11:37:47;;;;;;;1.92;1.15;;;;;;;2.40;64.70;98398.94;10430617;28;20567;-67
2023/11/27 11:42:57;;;;;;;2.55;1.30;;;;;;;2.32;64.98;98388.19;10435010;28;20072;-67
2023/11/27 11:48:01;;;;;;;1.58;1.30;;;;;;;2.44;64.71;98369.50;10435740;28;20132;-67
2023/11/27 11:53:28;;;;;;;3.20;1.20;;;;;;;2.40;64.77;98362.03;10436679;28;20615;-67
2023/11/27 11:58:30;;;;;;;2.47;1.33;;;;;;;2.35;64.68;98354.53;10433985;28;20059;-67
2023/11/27 12:03:33;;;;;;;3.47;1.25;;;;;;;2.17;65.13;98364.00;10435252;28;20954;-67
2023/11/27 12:08:37;;;;;;;2.63;1.45;;;;;;;2.06;65.36;98352.56;10428046;28;20503;-67
2023/11/27 12:13:43;;;;;;;2.15;1.48;;;;;;;2.08;65.34;98335.28;10416758;28;20075;-67
2023/11/27 12:18:49;;;;;;;1.75;1.38;;;;;;;2.06;65.22;98339.69;10431184;28;20622;-67
2023/11/27 12:23:53;;;;;;;2.53;1.27;;;;;;;1.92;65.31;98337.81;10433829;28;20335;-67
2023/11/27 12:28:55;;;;;;;1.45;1.20;;;;;;;1.85;65.50;98333.03;10431950;28;20435;-67
2023/11/27 12:34:02;;;;;;;3.83;1.40;;;;;;;1.91;65.70;98322.44;10430410;28;20047;-67
2023/11/27 12:39:10;;;;;;;2.50;1.50;;;;;;;1.97;65.93;98316.97;10433288;28;20523;-67
2023/11/27 12:44:15;;;;;;;1.98;1.50;;;;;;;2.13;65.39;98304.94;10411610;28;20481;-67
2023/11/27 12:49:22;;;;;;;3.63;1.90;;;;;;;1.98;65.53;98295.41;10427345;28;20083;-67
2023/11/27 12:54:27;;;;;;;2.88;1.73;;;;;;;2.06;65.29;98296.69;10427085;28;20045;-68
2023/11/27 12:59:30;;;;;;;2.63;1.63;;;;;;;2.15;65.18;98282.50;10420608;28;20044;-68
2023/11/27 13:04:38;;;;;;;2.78;1.60;;;;;;;2.37;65.08;98270.13;10431341;28;20051;-67
2023/11/27 13:09:42;;;;;;;2.35;1.77;;;;;;;2.39;64.96;98255.41;10426837;28;20037;-67
2023/11/27 13:14:51;;;;;;;2.33;1.48;;;;;;;2.19;65.24;98246.13;10421174;28;20728;-67
2023/11/27 13:19:53;;;;;;;1.60;1.27;;;;;;;2.12;65.41;98229.34;10415095;28;20048;-67
2023/11/27 13:24:57;;;;;;;1.98;1.30;;;;;;;2.20;65.31;98216.03;10430842;28;20037;-67
2023/11/27 13:29:59;;;;;;;1.67;1.20;;;;;;;2.25;65.29;98198.56;10432876;28;20047;-66
2023/11/27 13:35:04;;;;;;;1.80;1.30;;;;;;;2.43;65.45;98187.25;10431941;28;20138;-66
2023/11/27 13:40:06;;;;;;;2.15;1.50;;;;;;;2.49;64.85;98181.75;10435204;28;20570;-66
2023/11/27 13:45:14;;;;;;;1.73;1.48;;;;;;;2.45;65.01;98167.38;10432786;28;20091;-66
2023/11/27 13:50:16;;;;;;;3.47;1.70;;;;;;;2.38;64.89;98153.13;10401037;28;20049;-66
2023/11/27 13:55:18;;;;;;;2.10;1.40;;;;;;;2.37;65.03;98158.38;10429277;28;20040;-66
2023/11/27 14:00:21;;;;;;;2.30;1.40;;;;;;;2.39;65.00;98139.31;10428785;28;20049;-67
2023/11/27 14:05:36;;;;;;;2.20;1.48;;;;;;;2.25;65.11;98131.53;10430854;28;20063;-66
2023/11/27 14:10:54;;;;;;;1.97;1.33;;;;;;;2.15;65.05;98120.84;10411872;28;20091;-66
2023/11/27 14:15:57;;;;;;;1.85;1.30;;;;;;;2.06;65.32;98112.78;10411294;28;20473;-67
2023/11/27 14:26:34;;;;;;;3.30;1.75;;;;;;;2.11;65.16;98085.03;10421342;28;20114;-66
2023/11/27 14:31:36;;;;;;;2.38;1.50;;;;;;;2.10;65.31;98076.44;10443800;28;20053;-66
2023/11/27 14:36:39;;;;;;;1.70;1.40;;;;;;;2.03;65.47;98074.31;10430454;28;20114;-67
2023/11/27 14:41:45;;;;;;;2.63;1.67;;;;;;;2.12;65.56;98061.72;10429737;28;20424;-67
2023/11/27 14:46:53;;;;;;;1.75;1.38;;;;;;;2.01;65.45;98055.50;10420034;28;20645;-67
2023/11/27 14:52:02;;;;;;;2.25;1.50;;;;;;;2.04;65.61;98047.59;10436125;28;20076;-67
2023/11/27 14:57:09;;;;;;;2.53;1.55;;;;;;;2.03;65.61;98039.00;10434488;28;20069;-67
2023/11/27 15:02:12;;;;;;;2.42;1.55;;;;;;;2.07;65.45;98025.03;10402048;28;20048;-66
2023/11/27 15:07:15;;;;;;;2.53;1.48;;;;;;;2.00;65.49;98012.59;10433105;28;20488;-67
2023/11/27 15:12:18;;;;;;;6.15;1.75;;;;;;;1.86;65.43;98000.47;10433068;28;20480;-67
2023/11/27 15:17:21;;;;;;;2.92;1.90;;;;;;;1.83;65.89;97995.47;10435612;28;20049;-66
2023/11/27 15:22:24;;;;;;;2.85;1.60;;;;;;;1.86;65.81;97981.59;10436989;28;20052;-66
2023/11/27 15:27:30;;;;;;;3.03;2.20;;;;;;;1.85;65.93;97982.50;10435610;28;20041;-67
2023/11/27 15:32:32;;;;;;;3.08;1.88;;;;;;;1.81;66.13;97968.13;10418431;28;20049;-67
2023/11/27 15:37:34;;;;;;;5.28;1.92;;;;;;;1.84;65.93;97962.81;10436238;28;20056;-66
2023/11/27 15:42:36;;;;;;;2.33;1.70;;;;;;;1.84;66.31;97955.91;10434313;28;20041;-67
2023/11/27 15:47:38;;;;;;;3.85;2.08;;;;;;;1.93;66.06;97950.22;10435288;28;20048;-67
2023/11/27 15:52:45;;;;;;;4.38;1.73;;;;;;;1.96;65.73;97944.06;10434336;28;20072;-69
2023/11/27 15:57:48;;;;;;;2.40;1.70;;;;;;;1.84;65.95;97939.59;10431385;28;20361;-69
2023/11/27 16:02:50;;;;;;;3.20;1.60;;;;;;;1.88;66.07;97928.22;10433963;28;20067;-67
2023/11/27 16:07:52;;;;;;;2.80;1.80;;;;;;;1.94;66.11;97917.56;10431937;28;20413;-66
2023/11/27 16:12:55;;;;;;;3.90;2.45;;;;;;;1.97;66.14;97902.72;10431057;28;20128;-66
2023/11/27 16:17:58;;;;;;;2.80;1.73;;;;;;;2.00;65.94;97894.84;10433099;28;20132;-66
2023/11/27 16:23:02;;;;;;;3.72;1.95;;;;;;;1.82;66.09;97895.06;10434865;28;20057;-66
2023/11/27 16:28:11;;;;;;;4.07;2.45;;;;;;;1.94;66.17;97878.88;10434026;28;20267;-65
2023/11/27 16:33:14;;;;;;;3.83;1.90;;;;;;;2.03;65.95;97873.22;10414043;28;20036;-66
2023/11/27 16:38:16;;;;;;;4.28;2.17;;;;;;;1.98;65.99;97870.06;10429624;28;20041;-65
2023/11/27 16:43:18;;;;;;;3.05;2.03;;;;;;;1.97;66.02;97856.34;10414010;28;20048;-66
2023/11/27 16:48:21;;;;;;;2.95;1.95;;;;;;;2.02;65.95;97840.59;10399252;28;20102;-65
2023/11/27 16:53:26;;;;;;;3.30;1.83;;;;;;;1.93;65.88;97834.22;10413957;28;20080;-66
2023/11/27 16:58:31;;;;;;;3.00;1.88;;;;;;;1.91;66.11;97825.75;10430211;28;20041;-66
2023/11/27 17:03:34;;;;;;;3.60;1.92;;;;;;;1.73;66.37;97823.41;10431079;28;20049;-66
2023/11/27 17:08:38;;;;;;;3.85;2.60;;;;;;;1.73;66.66;97810.53;10433257;28;20583;-66
2023/11/27 17:13:43;;;;;;;4.18;2.60;;;;;;;1.79;66.24;97816.16;10429539;28;20063;-65
2023/11/27 17:18:47;;;;;;;6.68;2.42;;;;;;;1.79;66.25;97802.44;10432105;28;20052;-67
2023/11/27 17:23:50;;;;;;;4.07;2.70;;;;;;;1.75;66.44;97800.97;10430510;28;20060;-66
2023/11/27 17:28:52;;;;;;;4.18;2.30;;;;;;;1.79;66.61;97786.97;10429400;28;20053;-66
2023/11/27 17:33:54;;;;;;;5.68;2.28;;;;;;;1.80;66.54;97789.50;10431147;28;20089;-66
2023/11/27 17:38:56;;;;;;;5.05;2.53;;;;;;;1.86;66.54;97788.28;10428916;28;20044;-66
2023/11/27 17:44:00;;;;;;;4.00;2.22;;;;;;;1.91;66.34;97784.50;10429423;28;20060;-66
2023/11/27 17:49:02;;;;;;;5.22;2.45;;;;;;;1.96;66.48;97773.94;10431223;28;20224;-66
2023/11/27 17:54:04;;;;;;;4.40;2.40;;;;;;;2.02;66.07;97776.16;10433395;28;20098;-66
2023/11/27 17:59:06;;;;;;;4.32;2.50;;;;;;;2.06;66.11;97769.91;10431738;28;20053;-66
2023/11/27 18:04:08;;;;;;;4.32;2.08;;;;;;;2.00;66.18;97759.94;10429771;28;20129;-65
2023/11/27 18:09:11;;;;;;;3.33;2.20;;;;;;;1.90;66.15;97753.69;10431729;28;20060;-66
2023/11/27 18:14:13;;;;;;;4.03;2.08;;;;;;;1.98;66.30;97744.59;10431673;28;20055;-65
2023/11/27 18:19:16;;;;;;;3.80;1.98;;;;;;;2.01;66.02;97746.16;10429581;28;20538;-66
2023/11/27 18:24:18;;;;;;;4.70;2.17;;;;;;;2.00;66.48;97737.59;10430431;28;20047;-66
2023/11/27 18:29:20;;;;;;;3.50;2.10;;;;;;;2.09;66.24;97725.91;10446800;28;20049;-65
2023/11/27 18:34:24;;;;;;;8.48;3.38;;;;;;;2.04;66.01;97720.19;10430044;28;20335;-66
2023/11/27 18:39:30;;;;;;;5.82;3.33;;;;;;;1.96;66.29;97717.25;10431275;28;20041;-66
2023/11/27 18:44:32;;;;;;;7.22;3.60;;;;;;;2.01;66.14;97704.91;10429501;28;20075;-65
2023/11/27 18:49:35;;;;;;;5.15;2.88;;;;;;;2.13;65.98;97696.44;10412133;28;20048;-65
2023/11/27 18:54:37;;;;;;;6.65;3.70;;;;;;;2.16;65.97;97703.97;10429375;28;20156;-65
2023/11/27 18:59:39;;;;;;;6.32;3.05;;;;;;;2.13;65.74;97704.97;10431462;28;20110;-66
2023/11/27 19:04:44;;;;;;;10.98;5.82;;;;;;;2.11;65.90;97693.13;10430653;28;20664;-65
2023/11/27 19:09:47;;;;;;;5.63;3.17;;;;;;;2.03;65.89;97692.75;10427231;28;20076;-66
2023/11/27 19:14:50;;;;;;;3.97;2.47;;;;;;;2.02;66.05;97689.34;10427739;28;20079;-66
2023/11/27 19:19:55;;;;;;;4.72;2.33;;;;;;;2.10;66.04;97681.97;10428549;28;20507;-66
2023/11/27 19:24:58;;;;;;;3.60;2.30;;;;;;;2.11;65.78;97664.75;10420447;28;20497;-66
2023/11/27 19:30:00;;;;;;;4.28;2.60;;;;;;;1.99;65.79;97661.16;10415844;28;20041;-66
2023/11/27 19:35:03;;;;;;;4.55;2.60;;;;;;;1.98;66.01;97659.53;10435340;28;20500;-66
2023/11/27 19:40:07;;;;;;;4.07;2.33;;;;;;;1.94;66.04;97652.06;10436248;28;20065;-66
2023/11/27 19:45:10;;;;;;;4.22;2.35;;;;;;;1.93;65.99;97658.16;10431673;28;20148;-65
2023/11/27 19:50:13;;;;;;;4.32;2.20;;;;;;;1.92;66.17;97639.28;10418825;28;20056;-65
2023/11/27 19:55:16;;;;;;;4.65;2.65;;;;;;;1.78;66.23;97629.00;10436436;28;20417;-65
2023/11/27 20:00:22;;;;;;;4.45;2.60;;;;;;;1.83;66.24;97628.69;10437435;28;20041;-65
2023/11/27 20:05:25;;;;;;;4.75;2.28;;;;;;;1.92;66.41;97622.97;10435252;28;20044;-65
2023/11/27 20:10:27;;;;;;;2.97;2.00;;;;;;;1.93;66.14;97620.28;10436017;28;20899;-66
2023/11/27 20:15:30;;;;;;;3.83;2.13;;;;;;;1.95;66.18;97620.22;10434541;28;20493;-64
2023/11/27 20:20:34;;;;;;;4.07;2.42;;;;;;;2.04;66.13;97612.75;10432320;28;20072;-65
2023/11/27 20:25:37;;;;;;;3.53;2.22;;;;;;;2.07;65.88;97609.16;10435282;28;20123;-64
2023/11/27 20:30:39;;;;;;;4.25;2.60;;;;;;;2.12;65.83;97601.94;10433385;28;20037;-63
2023/11/27 20:35:41;;;;;;;4.85;2.58;;;;;;;2.10;66.00;97596.06;10435542;28;20045;-64
2023/11/27 20:40:44;;;;;;;4.13;2.50;;;;;;;2.08;65.98;97587.59;10416775;28;20126;-64
2023/11/27 20:45:47;;;;;;;3.15;2.13;;;;;;;2.01;65.77;97587.13;10435125;28;20579;-64
2023/11/27 20:50:49;;;;;;;3.85;2.40;;;;;;;1.99;66.20;97575.28;10435306;28;20049;-64
2023/11/27 20:55:51;;;;;;;3.22;2.08;;;;;;;2.05;66.04;97569.75;10410270;28;20045;-65
2023/11/27 21:00:53;;;;;;;3.92;2.38;;;;;;;1.94;65.87;97570.41;10434402;28;20094;-64
2023/11/27 21:05:55;;;;;;;8.05;2.20;;;;;;;1.87;66.32;97558.03;10413637;28;20041;-65
2023/11/27 21:10:57;;;;;;;8.52;3.17;;;;;;;1.76;66.58;97560.41;10433362;28;20387;-64
2023/11/27 21:15:59;;;;;;;5.55;2.75;;;;;;;1.87;66.53;97545.13;10432953;28;20052;-64
2023/11/27 21:21:01;;;;;;;5.60;2.63;;;;;;;1.87;66.38;97534.81;10434194;28;20063;-64
2023/11/27 21:26:05;;;;;;;4.70;2.38;;;;;;;1.87;66.39;97537.41;10432982;28;20044;-65
2023/11/27 21:31:07;;;;;;;8.82;2.85;;;;;;;1.80;66.32;97541.28;10432908;28;20355;-64
2023/11/27 21:36:09;;;;;;;4.65;2.42;;;;;;;1.71;66.71;97534.94;10431476;28;20045;-65
2023/11/27 21:41:11;;;;;;;4.85;2.60;;;;;;;1.73;66.76;97534.84;10432324;28;20041;-65
2023/11/27 21:46:13;;;;;;;3.95;2.53;;;;;;;1.83;66.49;97530.75;10427028;28;20463;-65
2023/11/27 21:51:21;;;;;;;4.57;2.13;;;;;;;1.80;66.51;97528.38;10431049;28;20938;-65
2023/11/27 21:56:23;;;;;;;3.47;1.90;;;;;;;1.73;66.48;97527.94;10413416;28;20492;-64
2023/11/27 22:01:25;;;;;;;3.85;2.15;;;;;;;1.79;66.74;97524.13;10431549;28;20576;-64
2023/11/27 22:06:27;;;;;;;2.92;2.00;;;;;;;1.87;66.57;97530.47;10424441;28;20041;-66
2023/11/27 22:11:29;;;;;;;3.70;2.05;;;;;;;2.01;66.47;97521.91;10413899;28;20068;-64
2023/11/27 22:16:31;;;;;;;4.15;2.20;;;;;;;2.16;66.33;97518.31;10428405;28;20048;-67
2023/11/27 22:21:34;;;;;;;15.32;4.47;;;;;;;2.08;66.00;97520.56;10429192;28;20045;-67
2023/11/27 22:26:40;;;;;;;9.90;4.13;;;;;;;2.06;66.29;97512.94;10430479;28;20049;-66
2023/11/27 22:31:42;;;;;;;10.90;3.60;;;;;;;2.17;66.09;97505.31;10414347;28;20585;-66
2023/11/27 22:36:45;;;;;;;7.05;3.30;;;;;;;2.20;66.01;97505.13;10429895;28;20044;-65
2023/11/27 22:41:46;;;;;;;9.00;3.58;;;;;;;2.23;65.98;97493.81;10432260;28;20057;-65
2023/11/27 22:46:48;;;;;;;13.73;4.00;;;;;;;2.26;65.96;97493.59;10430602;28;20040;-66
2023/11/27 22:51:51;;;;;;;6.88;3.05;;;;;;;2.22;65.84;97486.97;10434538;28;20694;-66
2023/11/27 22:56:53;;;;;;;5.20;2.92;;;;;;;2.23;65.87;97486.06;10423967;28;20045;-66
2023/11/27 23:01:54;;;;;;;4.50;2.75;;;;;;;2.23;65.87;97478.34;10413602;28;20047;-66
2023/11/27 23:06:57;;;;;;;4.65;2.35;;;;;;;2.23;65.88;97484.28;10419287;28;20072;-66
2023/11/27 23:12:00;;;;;;;5.95;2.95;;;;;;;2.12;65.63;97485.94;10452493;28;20389;-66
2023/11/27 23:17:02;;;;;;;5.30;3.42;;;;;;;2.07;65.85;97488.00;10436508;28;20690;-65
2023/11/27 23:22:04;;;;;;;5.07;2.45;;;;;;;2.08;66.07;97485.31;10449441;28;20041;-65
2023/11/27 23:27:06;;;;;;;4.80;2.80;;;;;;;2.15;66.08;97483.97;10420389;28;20491;-64
2023/11/27 23:32:08;;;;;;;6.00;2.63;;;;;;;2.16;66.10;97484.81;10439450;28;20453;-64
2023/11/27 23:37:10;;;;;;;5.72;2.90;;;;;;;2.19;65.86;97487.19;10420066;28;20623;-66
2023/11/27 23:42:13;;;;;;;6.50;3.17;;;;;;;2.27;65.95;97474.63;10437956;28;20528;-65
2023/11/27 23:47:15;;;;;;;4.07;2.45;;;;;;;2.31;65.77;97467.50;10439908;28;20047;-64
2023/11/27 23:52:17;;;;;;;5.10;2.85;;;;;;;2.37;65.82;97469.69;10438941;28;20436;-65
2023/11/27 23:57:19;;;;;;;4.22;2.33;;;;;;;2.34;65.76;97472.47;10438518;28;20067;-65
